Smiths Bend, Texas
Current Conditions -  °F | °C
As of 9:51 PM on Tuesday 27 Jan 2015 (Local Time) from KACT Reporting Station
Clear Clear  
Wind Chill: 46°   Ceiling: Unl
Heat Index: 49°   Visibility: 10mi
Dew Point: 42°   Wind: 7mph
Humidity: 77%   Direction: 220°SW
Pressure: 30.13"   Gusts: NA
Location:  31.7854°N, 97.5786°W
Report Text: KACT 280351Z 22006KT 10SM CLR 09/06 A3013 RMK AO2 SLP199 T00940056
Loading
Personal Weather Stations






























Interactive Weather Map New forecast layout! Learn more

10-Day Weather Forecast

Advertisements
Track Severe Weather on mobile